Time;durP1;ratioP1;P1;durP2;ratioP2;P2;SDS_P1;SDS_P2;PMS_P1;PMS_P2;Temp;Humidity;BMP_temperature;BMP_pressure;BME280_temperature;BME280_humidity;BME280_pressure;Samples;Min_cycle;Max_cycle;Signal;HPM_P1;HPM_P2
2021/07/04 00:01:56;;;;;;;5.38;4.80;;;31.80;99.90;;;;;;5041580;28;20239;-96
2021/07/04 00:04:29;;;;;;;5.05;4.55;;;32.00;99.90;;;;;;5058489;28;20188;-96
2021/07/04 00:13:48;;;;;;;5.00;4.38;;;31.40;99.90;;;;;;5034426;28;20213;-96
2021/07/04 00:16:22;;;;;;;5.80;4.57;;;31.60;99.90;;;;;;5054765;28;20224;-96
2021/07/04 00:18:55;;;;;;;4.45;4.05;;;31.60;99.90;;;;;;5046352;28;20220;-96
2021/07/04 00:21:27;;;;;;;6.15;4.55;;;31.60;99.90;;;;;;5033413;28;20205;-96
2021/07/04 00:23:59;;;;;;;4.95;4.47;;;31.60;99.90;;;;;;5044278;28;20216;-96
2021/07/04 00:26:30;;;;;;;6.53;4.57;;;31.80;99.90;;;;;;5044524;28;20219;-96
2021/07/04 00:29:31;;;;;;;5.35;4.13;;;31.80;99.90;;;;;;5054572;28;20213;-96
2021/07/04 00:32:03;;;;;;;5.13;4.35;;;31.80;99.90;;;;;;5046536;28;20244;-96
2021/07/04 00:34:35;;;;;;;4.57;4.18;;;31.70;99.90;;;;;;5039006;28;20616;-96
2021/07/04 00:37:09;;;;;;;4.93;4.43;;;31.30;99.70;;;;;;5038086;28;20229;-96
2021/07/04 00:39:47;;;;;;;5.53;4.00;;;31.10;99.90;;;;;;5040733;28;20189;-96
2021/07/04 00:45:00;;;;;;;6.65;4.82;;;31.10;99.90;;;;;;5852306;23;20224;-96
2021/07/04 00:47:40;;;;;;;5.60;4.90;;;30.90;99.90;;;;;;5012623;28;20207;-96
2021/07/04 00:50:14;;;;;;;6.15;3.95;;;30.60;99.90;;;;;;5015343;28;20233;-96
2021/07/04 00:52:52;;;;;;;7.13;4.57;;;31.10;99.90;;;;;;5017647;28;20206;-96
2021/07/04 00:55:32;;;;;;;6.00;3.97;;;31.90;99.90;;;;;;5016815;28;20240;-96
2021/07/04 00:58:04;;;;;;;5.75;4.15;;;32.20;99.90;;;;;;5014972;28;20252;-96
2021/07/04 01:00:42;;;;;;;4.53;4.13;;;32.90;98.10;;;;;;5013722;28;20202;-96
2021/07/04 01:03:18;;;;;;;5.97;5.38;;;32.50;98.30;;;;;;5013447;28;20217;-96
2021/07/04 01:05:51;;;;;;;5.00;4.18;;;33.00;98.90;;;;;;5012169;28;20608;-96
2021/07/04 01:08:26;;;;;;;4.40;4.00;;;32.90;97.50;;;;;;5000920;28;20265;-96
2021/07/04 01:11:02;;;;;;;4.43;3.95;;;33.00;98.00;;;;;;4993090;28;20270;-96
2021/07/04 01:13:35;;;;;;;4.00;3.70;;;33.30;97.10;;;;;;4994477;28;20206;-96
2021/07/04 01:16:11;;;;;;;4.57;3.90;;;33.10;96.40;;;;;;4995892;28;20210;-96
2021/07/04 01:18:45;;;;;;;4.05;3.72;;;33.30;95.90;;;;;;4997174;28;20229;-96
2021/07/04 01:21:19;;;;;;;4.47;3.78;;;33.30;96.40;;;;;;4996165;28;20209;-96
2021/07/04 01:23:58;;;;;;;5.13;3.72;;;33.50;95.90;;;;;;4996842;28;20278;-96
2021/07/04 01:50:52;;;;;;;5.22;4.07;;;33.40;95.00;;;;;;5262612;23;20251;-96
2021/07/04 01:53:23;;;;;;;4.28;3.88;;;33.70;94.90;;;;;;5012355;28;20237;-96
2021/07/04 01:58:44;;;;;;;4.40;4.00;;;33.20;95.20;;;;;;5011085;28;20240;-96
2021/07/04 02:01:16;;;;;;;6.22;4.28;;;33.50;93.90;;;;;;5010475;28;20214;-96
2021/07/04 02:06:39;;;;;;;4.40;3.90;;;33.30;95.10;;;;;;5010579;28;20206;-96
2021/07/04 02:09:11;;;;;;;4.20;3.80;;;32.90;94.50;;;;;;5010926;28;20268;-96
2021/07/04 02:11:47;;;;;;;5.55;3.40;;;33.40;94.20;;;;;;5009117;28;20206;-94
2021/07/04 02:14:20;;;;;;;5.53;4.30;;;32.60;94.40;;;;;;5009491;28;20213;-96
2021/07/04 02:16:56;;;;;;;5.75;4.13;;;32.60;94.20;;;;;;5014030;28;20222;-96
2021/07/04 02:19:35;;;;;;;5.53;3.92;;;32.80;94.30;;;;;;5003448;28;20229;-96
2021/07/04 02:22:10;;;;;;;6.40;4.25;;;31.70;94.70;;;;;;5080210;23;20241;-96
2021/07/04 02:24:42;;;;;;;4.72;4.05;;;31.30;95.70;;;;;;5639867;23;20245;-96
2021/07/04 02:27:13;;;;;;;4.88;4.10;;;31.60;95.20;;;;;;5021022;28;20252;-96
2021/07/04 02:29:45;;;;;;;6.63;4.60;;;32.20;95.60;;;;;;5017451;28;20214;-96
2021/07/04 02:32:15;;;;;;;5.20;4.07;;;32.10;95.10;;;;;;5020685;28;20241;-94
2021/07/04 02:34:47;;;;;;;4.95;4.45;;;31.70;95.30;;;;;;5023095;28;20224;-95
2021/07/04 02:37:20;;;;;;;4.55;4.15;;;31.60;95.30;;;;;;5028154;28;20257;-95
2021/07/04 02:39:51;;;;;;;4.68;4.22;;;31.00;95.50;;;;;;5034437;28;20194;-95
2021/07/04 02:42:22;;;;;;;4.70;4.30;;;29.90;96.40;;;;;;5035152;28;20229;-95
2021/07/04 02:44:54;;;;;;;5.77;4.20;;;29.40;97.10;;;;;;5031784;28;20240;-95
2021/07/04 02:47:25;;;;;;;5.70;4.53;;;29.00;97.50;;;;;;5037535;28;20252;-95
2021/07/04 02:49:56;;;;;;;4.60;4.07;;;28.70;97.70;;;;;;5039384;28;20196;-95
2021/07/04 02:52:29;;;;;;;6.00;4.30;;;28.30;98.20;;;;;;5040146;28;20193;-95
2021/07/04 02:55:00;;;;;;;5.83;4.50;;;28.10;98.80;;;;;;5039297;28;20208;-95
2021/07/04 02:57:32;;;;;;;4.83;4.37;;;27.90;99.40;;;;;;5033918;28;20245;-96
2021/07/04 03:00:04;;;;;;;5.43;4.53;;;27.80;99.40;;;;;;5037706;28;20206;-95
2021/07/04 03:02:36;;;;;;;4.37;3.97;;;27.60;99.90;;;;;;5022488;28;20209;-94
2021/07/04 03:05:09;;;;;;;7.17;4.60;;;27.50;99.90;;;;;;5019533;28;20267;-96
2021/07/04 03:07:42;;;;;;;8.30;4.87;;;27.30;99.60;;;;;;5018969;28;20718;-96
2021/07/04 03:10:16;;;;;;;5.30;4.57;;;27.20;99.90;;;;;;5018520;28;20292;-95
2021/07/04 03:12:47;;;;;;;4.73;4.33;;;27.00;99.90;;;;;;5018565;28;20290;-96
2021/07/04 03:15:20;;;;;;;7.10;4.73;;;26.90;99.90;;;;;;5017276;28;20300;-95
2021/07/04 03:17:51;;;;;;;5.43;4.60;;;26.80;99.90;;;;;;5017212;28;20249;-96
2021/07/04 03:20:22;;;;;;;5.20;4.63;;;26.70;99.90;;;;;;5018079;28;20206;-95
2021/07/04 03:22:58;;;;;;;6.93;5.10;;;26.60;99.90;;;;;;5018156;28;20541;-96
2021/07/04 03:25:32;;;;;;;5.17;4.67;;;26.50;99.90;;;;;;5018080;28;20300;-96
2021/07/04 03:28:03;;;;;;;8.43;5.40;;;26.40;99.90;;;;;;5018198;28;20233;-96
2021/07/04 03:30:34;;;;;;;7.33;4.40;;;26.40;99.90;;;;;;5017169;28;20296;-96
2021/07/04 03:33:05;;;;;;;5.20;4.70;;;26.20;99.90;;;;;;5018470;28;20236;-96
2021/07/04 03:35:36;;;;;;;5.40;4.60;;;26.10;99.90;;;;;;5018657;28;20236;-96
2021/07/04 03:38:10;;;;;;;5.73;4.93;;;26.00;99.90;;;;;;5017780;28;20237;-96
2021/07/04 03:40:41;;;;;;;4.87;4.30;;;25.90;99.90;;;;;;5018770;28;20220;-96
2021/07/04 03:43:13;;;;;;;5.23;4.27;;;25.70;99.90;;;;;;5018125;28;20212;-95
2021/07/04 03:45:44;;;;;;;5.00;4.60;;;25.70;99.90;;;;;;5018670;28;20301;-96
2021/07/04 03:48:15;;;;;;;4.90;4.40;;;25.60;99.90;;;;;;5034581;28;20186;-95
2021/07/04 03:50:47;;;;;;;5.50;4.27;;;25.40;99.90;;;;;;5037922;28;20214;-96
2021/07/04 03:53:20;;;;;;;5.30;4.80;;;25.30;99.90;;;;;;5037669;28;20204;-95
2021/07/04 03:55:54;;;;;;;7.43;4.80;;;25.20;99.90;;;;;;5018610;28;20237;-96
2021/07/04 03:58:28;;;;;;;6.23;4.70;;;25.20;99.90;;;;;;5019259;28;20241;-96
2021/07/04 04:00:59;;;;;;;4.97;4.13;;;25.10;99.90;;;;;;5017281;28;20237;-96
2021/07/04 04:03:31;;;;;;;6.23;4.37;;;25.00;99.90;;;;;;5017578;28;20213;-96
2021/07/04 04:06:02;;;;;;;4.00;3.53;;;24.80;99.90;;;;;;5017273;28;20213;-96
2021/07/04 04:08:35;;;;;;;5.70;4.27;;;24.70;99.90;;;;;;5017491;28;20632;-96
2021/07/04 04:11:07;;;;;;;5.07;4.07;;;24.70;99.90;;;;;;5016372;28;20218;-96
2021/07/04 04:13:39;;;;;;;5.10;4.03;;;24.60;99.90;;;;;;5016551;28;20233;-96
2021/07/04 04:16:11;;;;;;;4.30;3.90;;;24.40;99.90;;;;;;5017479;28;20213;-96
2021/07/04 04:18:44;;;;;;;5.07;3.97;;;24.40;99.90;;;;;;5018256;28;20627;-96
2021/07/04 04:21:16;;;;;;;5.43;3.93;;;24.30;99.90;;;;;;5017095;28;20268;-96
2021/07/04 04:23:49;;;;;;;4.33;3.93;;;24.20;99.90;;;;;;5018332;28;20662;-96
2021/07/04 04:26:20;;;;;;;4.47;4.03;;;24.10;99.90;;;;;;5016095;28;20209;-96
2021/07/04 04:28:51;;;;;;;4.20;3.40;;;24.00;99.90;;;;;;5017864;28;20620;-96
2021/07/04 04:31:22;;;;;;;4.77;4.13;;;23.90;99.90;;;;;;5025984;28;20220;-95
2021/07/04 04:33:53;;;;;;;5.03;3.80;;;23.80;99.90;;;;;;5038322;28;20296;-96
2021/07/04 04:36:24;;;;;;;6.00;4.10;;;23.70;99.90;;;;;;5021876;28;20237;-95
2021/07/04 04:38:57;;;;;;;11.57;6.53;;;23.70;99.90;;;;;;5018490;28;20772;-96
2021/07/04 04:41:29;;;;;;;4.70;4.20;;;23.60;99.90;;;;;;5015026;28;20213;-96
2021/07/04 04:43:59;;;;;;;4.43;3.93;;;23.40;99.90;;;;;;5016611;28;20666;-96
2021/07/04 04:46:31;;;;;;;4.30;3.90;;;23.30;99.90;;;;;;5015087;28;20300;-96
2021/07/04 04:49:02;;;;;;;4.10;3.63;;;23.10;99.90;;;;;;5017102;28;20209;-96
2021/07/04 04:51:33;;;;;;;4.57;3.70;;;23.10;99.90;;;;;;5016143;28;20233;-95
2021/07/04 04:54:06;;;;;;;6.27;3.70;;;23.00;99.90;;;;;;5017423;28;20297;-95
2021/07/04 04:56:38;;;;;;;4.10;3.70;;;23.00;99.90;;;;;;5020403;28;20305;-94
2021/07/04 04:59:09;;;;;;;4.77;3.87;;;22.90;99.90;;;;;;5020288;28;20248;-96
2021/07/04 05:01:41;;;;;;;5.13;4.00;;;22.80;99.90;;;;;;5016721;28;20729;-96
2021/07/04 05:04:12;;;;;;;4.37;3.80;;;22.80;99.90;;;;;;5017846;28;20213;-96
2021/07/04 05:06:45;;;;;;;5.20;4.33;;;22.70;99.90;;;;;;5019842;28;20205;-90
2021/07/04 05:09:18;;;;;;;7.50;4.33;;;22.60;99.90;;;;;;5017293;28;20277;-91
2021/07/04 05:11:52;;;;;;;8.87;5.00;;;22.60;99.90;;;;;;5011638;28;20320;-91
2021/07/04 05:14:23;;;;;;;7.37;4.23;;;22.50;99.90;;;;;;5017853;28;20217;-92
2021/07/04 05:16:55;;;;;;;6.03;4.27;;;22.40;99.90;;;;;;5018205;28;20225;-90
2021/07/04 05:19:27;;;;;;;5.93;4.23;;;22.30;99.90;;;;;;5016083;28;20292;-91
2021/07/04 05:21:59;;;;;;;7.03;4.80;;;22.20;99.90;;;;;;5015918;28;20229;-91
2021/07/04 05:24:31;;;;;;;4.30;3.90;;;22.10;99.90;;;;;;4998506;28;20218;-91
2021/07/04 05:27:02;;;;;;;4.43;4.03;;;22.10;99.90;;;;;;5011136;28;20205;-90
2021/07/04 05:29:33;;;;;;;5.13;4.57;;;22.10;99.90;;;;;;5031761;28;20612;-90
2021/07/04 05:32:04;;;;;;;5.17;4.23;;;22.00;99.90;;;;;;5028423;28;20212;-90
2021/07/04 05:34:35;;;;;;;5.70;4.50;;;22.00;99.90;;;;;;4996983;28;20230;-90
2021/07/04 05:37:06;;;;;;;5.90;4.37;;;22.00;99.90;;;;;;5011528;28;20293;-90
2021/07/04 05:39:39;;;;;;;5.83;4.43;;;22.00;99.90;;;;;;5015064;28;20269;-91
2021/07/04 05:42:11;;;;;;;5.37;3.93;;;21.90;99.90;;;;;;5014599;28;20217;-90
2021/07/04 05:44:42;;;;;;;4.73;4.23;;;21.90;99.90;;;;;;5016212;28;20323;-91
2021/07/04 05:47:14;;;;;;;5.37;4.30;;;21.80;99.90;;;;;;5015545;28;20227;-91
2021/07/04 05:49:47;;;;;;;9.13;4.90;;;21.80;99.90;;;;;;5015784;28;20218;-91
2021/07/04 05:52:18;;;;;;;4.90;3.77;;;21.70;99.90;;;;;;5014989;28;20647;-91
2021/07/04 05:54:50;;;;;;;5.13;4.23;;;21.60;99.90;;;;;;5014849;28;20248;-91
2021/07/04 05:57:21;;;;;;;6.13;4.43;;;21.70;99.90;;;;;;5014982;28;20213;-91
2021/07/04 05:59:52;;;;;;;4.63;4.10;;;21.70;99.90;;;;;;5015425;28;20321;-95
2021/07/04 06:02:23;;;;;;;4.90;4.10;;;21.70;99.90;;;;;;5016314;28;20260;-91
2021/07/04 06:04:54;;;;;;;5.43;4.53;;;21.60;99.90;;;;;;5015133;28;20222;-91
2021/07/04 06:07:25;;;;;;;9.63;4.70;;;21.60;99.90;;;;;;5016835;28;20244;-90
2021/07/04 06:09:58;;;;;;;5.13;4.10;;;21.50;99.90;;;;;;5014969;28;20244;-94
2021/07/04 06:12:29;;;;;;;6.60;4.57;;;21.40;99.90;;;;;;5036417;28;20236;-91
2021/07/04 06:15:01;;;;;;;8.70;4.57;;;21.40;99.90;;;;;;5036410;28;20189;-91
2021/07/04 06:17:32;;;;;;;5.20;4.10;;;21.30;99.90;;;;;;5030776;28;20681;-91
2021/07/04 06:20:02;;;;;;;5.83;4.27;;;21.30;99.90;;;;;;5017754;28;20591;-90
2021/07/04 06:22:34;;;;;;;6.20;4.50;;;21.30;99.90;;;;;;5019989;28;20241;-89
2021/07/04 06:25:09;;;;;;;7.77;4.57;;;21.20;99.90;;;;;;5017007;28;20213;-90
2021/07/04 06:27:41;;;;;;;5.87;4.80;;;21.10;99.90;;;;;;5019357;28;20213;-90
2021/07/04 06:30:13;;;;;;;4.50;4.10;;;21.10;99.90;;;;;;5018046;28;20297;-91
2021/07/04 06:32:45;;;;;;;6.10;4.63;;;21.00;99.90;;;;;;5017752;28;20263;-90
2021/07/04 06:35:17;;;;;;;6.40;4.70;;;20.90;99.90;;;;;;5015970;28;20785;-90
2021/07/04 06:37:49;;;;;;;6.20;4.40;;;20.90;99.90;;;;;;5018864;28;20586;-90
2021/07/04 06:40:22;;;;;;;7.40;4.77;;;20.90;99.90;;;;;;5018661;28;20234;-90
2021/07/04 06:42:53;;;;;;;6.10;4.63;;;20.80;99.90;;;;;;5018237;28;20292;-90
2021/07/04 06:45:26;;;;;;;6.93;4.70;;;20.80;99.90;;;;;;5019053;28;20275;-90
2021/07/04 06:47:57;;;;;;;5.80;5.03;;;20.80;99.90;;;;;;5018704;28;20736;-91
2021/07/04 06:50:28;;;;;;;6.67;4.77;;;20.70;99.90;;;;;;5019691;28;20260;-90
2021/07/04 06:53:00;;;;;;;6.50;4.53;;;20.70;99.90;;;;;;5020306;28;20543;-91
2021/07/04 06:55:39;;;;;;;5.67;4.40;;;20.80;99.90;;;;;;5019244;28;20206;-90
2021/07/04 06:58:11;;;;;;;7.83;5.10;;;20.70;99.90;;;;;;5001810;28;20657;-91
2021/07/04 07:00:42;;;;;;;8.47;4.83;;;20.50;99.90;;;;;;4999072;28;20234;-91
2021/07/04 07:03:14;;;;;;;6.87;4.60;;;20.50;99.90;;;;;;5019007;28;20210;-91
2021/07/04 07:05:45;;;;;;;5.97;4.50;;;20.40;99.90;;;;;;5020699;28;20288;-91
2021/07/04 07:08:17;;;;;;;6.20;4.50;;;20.40;99.90;;;;;;5019336;28;20244;-91
2021/07/04 07:10:50;;;;;;;6.73;4.70;;;20.30;99.90;;;;;;5019273;28;20288;-91
2021/07/04 07:13:21;;;;;;;4.87;4.37;;;20.30;99.90;;;;;;5018711;28;20230;-91
2021/07/04 07:15:52;;;;;;;6.17;4.37;;;20.30;99.90;;;;;;5018557;28;20201;-91
2021/07/04 07:18:27;;;;;;;5.50;4.53;;;20.30;99.90;;;;;;5005427;28;20218;-91
2021/07/04 07:20:58;;;;;;;6.40;4.47;;;20.20;99.90;;;;;;4997225;28;20269;-90
2021/07/04 07:23:29;;;;;;;6.40;4.27;;;20.20;99.90;;;;;;4998048;28;20301;-90
2021/07/04 07:26:02;;;;;;;5.10;4.60;;;20.20;99.90;;;;;;4998247;28;20241;-90
2021/07/04 07:28:33;;;;;;;7.07;4.60;;;20.10;99.90;;;;;;4998026;28;20293;-90
2021/07/04 07:31:05;;;;;;;6.13;4.63;;;20.00;99.90;;;;;;5005555;28;20237;-90
2021/07/04 07:33:37;;;;;;;5.87;4.60;;;20.00;99.90;;;;;;5014545;28;20681;-90
2021/07/04 07:36:08;;;;;;;5.97;4.73;;;19.90;99.90;;;;;;5021446;28;20324;-90
2021/07/04 07:38:39;;;;;;;7.90;5.30;;;20.00;99.90;;;;;;5020799;28;20229;-90
2021/07/04 07:41:13;;;;;;;8.80;5.00;;;19.90;99.90;;;;;;5020345;28;20693;-90
2021/07/04 07:43:44;;;;;;;7.57;5.93;;;19.90;99.90;;;;;;5020396;28;20205;-90
2021/07/04 07:46:16;;;;;;;7.03;5.43;;;19.90;99.90;;;;;;5017955;28;20214;-91
2021/07/04 07:48:47;;;;;;;8.03;5.33;;;19.80;99.90;;;;;;5019245;28;20309;-91
2021/07/04 07:51:18;;;;;;;5.87;5.27;;;19.80;99.90;;;;;;5018089;28;20244;-92
2021/07/04 07:53:49;;;;;;;6.77;5.37;;;19.70;99.90;;;;;;5019234;28;20201;-91
2021/07/04 07:56:22;;;;;;;8.07;5.10;;;19.70;99.90;;;;;;5014767;28;20295;-91
2021/07/04 07:58:53;;;;;;;6.63;4.93;;;19.60;99.90;;;;;;5019392;28;20241;-92
2021/07/04 08:01:23;;;;;;;8.03;5.03;;;19.60;99.90;;;;;;5020314;28;20252;-92
2021/07/04 08:03:54;;;;;;;7.23;5.13;;;19.50;99.90;;;;;;5021460;28;20209;-92
2021/07/04 08:06:25;;;;;;;9.07;5.00;;;19.50;99.90;;;;;;5016005;28;20213;-90
2021/07/04 08:08:56;;;;;;;7.00;4.80;;;19.50;99.90;;;;;;5018609;28;20259;-91
2021/07/04 08:11:29;;;;;;;5.70;4.60;;;19.40;99.90;;;;;;5017772;28;20194;-91
2021/07/04 08:14:00;;;;;;;7.40;4.97;;;19.40;99.90;;;;;;5036983;28;20209;-92
2021/07/04 08:16:32;;;;;;;9.13;5.63;;;19.40;99.90;;;;;;5036719;28;20221;-91
2021/07/04 08:19:03;;;;;;;7.73;4.77;;;19.40;99.90;;;;;;5036380;28;20224;-91
2021/07/04 08:21:34;;;;;;;5.20;4.60;;;19.40;99.90;;;;;;5025531;28;20225;-91
2021/07/04 08:24:05;;;;;;;7.27;4.80;;;19.40;99.90;;;;;;5017678;28;20213;-91
2021/07/04 08:26:40;;;;;;;7.00;4.50;;;19.30;99.90;;;;;;5020939;28;20584;-91
2021/07/04 08:29:11;;;;;;;5.83;4.53;;;19.30;99.90;;;;;;5015616;28;20229;-91
2021/07/04 08:31:43;;;;;;;6.97;5.07;;;19.20;99.90;;;;;;5016311;28;20229;-91
2021/07/04 08:34:14;;;;;;;10.73;5.30;;;19.20;99.90;;;;;;5016603;28;20216;-91
2021/07/04 08:36:45;;;;;;;11.17;5.37;;;19.20;99.90;;;;;;5033209;28;20194;-92
2021/07/04 08:39:16;;;;;;;6.67;5.17;;;19.20;99.90;;;;;;5038102;28;20208;-92
2021/07/04 08:41:50;;;;;;;9.03;5.20;;;19.10;99.90;;;;;;5035364;28;20229;-91
2021/07/04 08:44:21;;;;;;;7.33;4.97;;;19.10;99.90;;;;;;5019365;28;20229;-91
2021/07/04 08:46:53;;;;;;;9.97;5.07;;;19.00;99.90;;;;;;5018957;28;20656;-91
2021/07/04 08:49:24;;;;;;;9.20;5.43;;;19.00;99.90;;;;;;4989571;28;20198;-91
2021/07/04 08:51:55;;;;;;;9.13;5.17;;;18.90;99.90;;;;;;5015624;28;20241;-91
2021/07/04 08:54:26;;;;;;;7.33;5.13;;;18.80;99.90;;;;;;5005244;28;20225;-91
2021/07/04 08:56:59;;;;;;;6.97;5.43;;;18.70;99.90;;;;;;4996366;28;20242;-91
2021/07/04 08:59:30;;;;;;;10.37;5.60;;;18.70;99.90;;;;;;4997624;28;20687;-91
2021/07/04 09:02:01;;;;;;;6.57;4.87;;;18.70;99.90;;;;;;5013043;28;20268;-90
2021/07/04 09:04:32;;;;;;;9.17;4.97;;;18.60;99.90;;;;;;5033014;28;20201;-91
2021/07/04 09:07:08;;;;;;;7.53;4.90;;;18.60;99.90;;;;;;5017444;28;20232;-91
2021/07/04 09:09:39;;;;;;;6.63;4.63;;;18.50;99.90;;;;;;5018144;28;20216;-91
2021/07/04 09:12:14;;;;;;;6.23;5.10;;;18.60;99.90;;;;;;5018233;28;20248;-91
2021/07/04 09:14:46;;;;;;;7.23;5.10;;;18.50;99.90;;;;;;5015928;28;20288;-91
2021/07/04 09:17:35;;;;;;;10.53;5.03;;;18.50;99.90;;;;;;5015760;28;20218;-90
2021/07/04 09:20:11;;;;;;;7.97;4.97;;;18.50;99.90;;;;;;5015195;28;20240;-90
2021/07/04 09:22:43;;;;;;;7.93;5.63;;;18.50;99.90;;;;;;5015070;28;20749;-90
2021/07/04 09:25:17;;;;;;;8.53;5.17;;;18.50;99.90;;;;;;5015102;28;20213;-90
2021/07/04 09:28:05;;;;;;;5.87;4.90;;;18.40;99.90;;;;;;5015237;28;20218;-90
2021/07/04 09:30:38;;;;;;;7.57;5.37;;;18.40;99.90;;;;;;5014625;28;20605;-90
2021/07/04 09:33:14;;;;;;;6.30;5.30;;;18.40;99.90;;;;;;5014296;28;20241;-90
2021/07/04 09:35:57;;;;;;;7.40;5.13;;;18.30;99.90;;;;;;5015327;28;20213;-90
2021/07/04 09:38:31;;;;;;;7.90;4.80;;;18.20;99.90;;;;;;5014902;28;20304;-90
2021/07/04 09:41:03;;;;;;;8.57;4.90;;;18.20;99.90;;;;;;5015183;28;20221;-90
2021/07/04 09:43:37;;;;;;;7.50;5.03;;;18.10;99.90;;;;;;5014857;28;20214;-90
2021/07/04 09:46:08;;;;;;;11.27;5.20;;;18.00;99.90;;;;;;5014519;28;20232;-90
2021/07/04 09:48:42;;;;;;;8.50;5.33;;;18.00;99.90;;;;;;5014042;28;20240;-89
2021/07/04 09:51:18;;;;;;;7.20;4.93;;;18.00;99.90;;;;;;5012519;28;20282;-90
2021/07/04 09:53:51;;;;;;;8.83;4.97;;;18.00;99.90;;;;;;5014861;28;20373;-90
2021/07/04 09:56:23;;;;;;;6.60;5.00;;;18.00;99.90;;;;;;5014367;28;20241;-91
2021/07/04 09:58:57;;;;;;;9.27;5.27;;;18.00;99.90;;;;;;5014407;28;20670;-90
2021/07/04 10:01:37;;;;;;;5.90;5.10;;;17.90;99.90;;;;;;5013389;28;20232;-90
2021/07/04 10:04:10;;;;;;;8.57;5.07;;;17.90;99.90;;;;;;5014646;28;20205;-90
2021/07/04 10:06:48;;;;;;;8.90;5.30;;;17.90;99.90;;;;;;5016049;28;20233;-90
2021/07/04 10:09:19;;;;;;;7.13;4.63;;;17.80;99.90;;;;;;5028825;28;20224;-90
2021/07/04 10:11:54;;;;;;;8.97;5.60;;;17.80;99.90;;;;;;5022040;28;20217;-91
2021/07/04 10:14:27;;;;;;;9.40;5.87;;;17.80;99.90;;;;;;5014476;28;20269;-90
2021/07/04 10:17:01;;;;;;;9.17;5.70;;;17.80;99.90;;;;;;5014655;28;20252;-91
2021/07/04 10:19:32;;;;;;;9.93;6.10;;;17.70;99.90;;;;;;5016844;28;20281;-90
2021/07/04 10:22:05;;;;;;;8.67;5.93;;;17.70;99.90;;;;;;5015421;28;20252;-90
2021/07/04 10:24:39;;;;;;;11.50;6.43;;;17.60;99.90;;;;;;5016164;28;20694;-90
2021/07/04 10:27:13;;;;;;;11.70;6.40;;;17.60;99.90;;;;;;5014906;28;20232;-90
2021/07/04 10:29:47;;;;;;;13.23;6.27;;;17.60;99.90;;;;;;5015140;28;20212;-89
2021/07/04 10:32:18;;;;;;;14.03;6.10;;;17.50;99.90;;;;;;5014113;28;20671;-89
2021/07/04 10:34:50;;;;;;;13.50;6.97;;;17.60;99.90;;;;;;5014065;28;20296;-89
2021/07/04 10:37:32;;;;;;;14.60;7.53;;;17.60;99.90;;;;;;4994803;28;20734;-89
2021/07/04 10:40:16;;;;;;;14.93;7.37;;;17.50;99.90;;;;;;4993752;28;20225;-90
2021/07/04 10:42:47;;;;;;;13.83;7.37;;;17.40;99.90;;;;;;4994472;28;20242;-89
2021/07/04 10:45:41;;;;;;;15.43;7.50;;;17.40;99.90;;;;;;4994923;28;20230;-89
2021/07/04 10:48:23;;;;;;;13.90;7.70;;;17.40;99.90;;;;;;4995706;28;20210;-89
2021/07/04 10:51:08;;;;;;;15.70;8.40;;;17.30;99.90;;;;;;4994099;28;20241;-89
2021/07/04 10:53:52;;;;;;;13.63;7.87;;;17.20;99.90;;;;;;4994659;28;20241;-90
2021/07/04 10:56:41;;;;;;;18.97;8.47;;;17.20;99.90;;;;;;4995213;28;20217;-89
2021/07/04 10:59:14;;;;;;;15.93;8.17;;;17.20;99.90;;;;;;4995080;28;20297;-90
2021/07/04 11:01:58;;;;;;;16.33;8.53;;;17.20;99.90;;;;;;5028612;28;20237;-90
2021/07/04 11:04:55;;;;;;;15.10;7.33;;;17.10;99.90;;;;;;5034464;28;20214;-90
2021/07/04 11:07:27;;;;;;;17.10;8.30;;;17.10;99.90;;;;;;5008091;28;20237;-89
2021/07/04 11:10:18;;;;;;;20.97;7.80;;;17.10;99.90;;;;;;4997723;28;20238;-91
2021/07/04 11:12:49;;;;;;;14.03;6.97;;;17.10;99.90;;;;;;4998384;28;20206;-90
2021/07/04 11:15:31;;;;;;;22.60;8.47;;;17.10;99.90;;;;;;4998597;28;20209;-90
2021/07/04 11:18:22;;;;;;;17.43;7.50;;;17.10;99.90;;;;;;4999257;28;20214;-90
2021/07/04 11:20:59;;;;;;;20.70;8.17;;;17.00;99.90;;;;;;4996408;28;20210;-89
2021/07/04 11:23:30;;;;;;;16.53;7.43;;;17.00;99.90;;;;;;4998450;28;20296;-89
2021/07/04 11:26:11;;;;;;;19.57;7.63;;;17.00;99.90;;;;;;4998206;28;20245;-89
2021/07/04 11:28:42;;;;;;;18.73;7.60;;;17.00;99.90;;;;;;5001703;28;20214;-88
2021/07/04 11:31:33;;;;;;;14.00;7.03;;;17.00;99.90;;;;;;5006601;28;20294;-89
2021/07/04 11:34:10;;;;;;;17.57;7.57;;;17.00;99.90;;;;;;5002065;28;20239;-89
2021/07/04 11:36:42;;;;;;;17.07;7.23;;;17.00;99.90;;;;;;5011897;28;20256;-90
2021/07/04 11:39:14;;;;;;;15.47;7.90;;;16.90;99.90;;;;;;5017876;28;20261;-90
2021/07/04 11:41:52;;;;;;;16.20;7.67;;;16.80;99.90;;;;;;5016110;28;20240;-90
2021/07/04 11:44:24;;;;;;;24.33;8.37;;;16.70;99.90;;;;;;5017295;28;20209;-90
2021/07/04 11:46:56;;;;;;;24.33;8.37;;;16.70;99.90;;;;;;5016985;28;21009;-90
2021/07/04 11:49:29;;;;;;;15.37;7.97;;;16.70;99.90;;;;;;5017325;28;20293;-90
2021/07/04 11:52:04;;;;;;;19.33;8.37;;;16.60;99.90;;;;;;5015866;28;20317;-89
2021/07/04 11:54:36;;;;;;;18.43;7.80;;;16.60;99.90;;;;;;5016605;28;20296;-88
2021/07/04 11:59:54;;;;;;;15.20;7.20;;;16.60;99.90;;;;;;5015842;28;20243;-92
2021/07/04 12:02:26;;;;;;;16.00;7.00;;;16.60;99.90;;;;;;5015934;28;20260;-89
2021/07/04 12:04:58;;;;;;;24.23;8.17;;;16.60;99.90;;;;;;5016597;28;20734;-89
2021/07/04 12:07:30;;;;;;;19.93;7.53;;;16.60;99.90;;;;;;5017208;28;20301;-89
2021/07/04 12:10:00;;;;;;;20.67;7.17;;;16.60;99.90;;;;;;5015968;28;20296;-90
2021/07/04 12:12:33;;;;;;;20.37;7.70;;;16.60;99.90;;;;;;5016681;28;20288;-89
2021/07/04 12:15:08;;;;;;;16.47;7.30;;;16.60;99.90;;;;;;5017146;28;20211;-89
2021/07/04 12:17:41;;;;;;;20.80;8.03;;;16.50;99.90;;;;;;5016086;28;20205;-89
2021/07/04 12:20:18;;;;;;;14.40;7.07;;;16.50;99.90;;;;;;5015533;28;20209;-89
2021/07/04 12:22:52;;;;;;;16.70;7.53;;;16.50;99.90;;;;;;5016206;28;20312;-89
2021/07/04 12:25:30;;;;;;;19.80;7.23;;;16.50;99.90;;;;;;5015894;28;20253;-89
2021/07/04 12:28:02;;;;;;;19.90;7.90;;;16.50;99.90;;;;;;5015800;28;20621;-89
2021/07/04 12:30:36;;;;;;;19.80;8.20;;;16.50;99.90;;;;;;5015895;28;20237;-89
2021/07/04 12:33:09;;;;;;;19.03;7.97;;;16.40;99.90;;;;;;5016601;28;20304;-90
2021/07/04 12:35:44;;;;;;;16.10;7.87;;;16.30;99.90;;;;;;5016694;28;20240;-89
2021/07/04 12:38:17;;;;;;;12.83;6.77;;;16.30;99.90;;;;;;5017111;28;20205;-89
2021/07/04 12:40:54;;;;;;;18.03;7.37;;;16.30;99.90;;;;;;5015649;28;20626;-90
2021/07/04 12:43:28;;;;;;;17.73;7.13;;;16.20;99.90;;;;;;5016771;28;20232;-90
2021/07/04 12:46:02;;;;;;;16.43;7.77;;;16.20;99.90;;;;;;5016946;28;20647;-90
2021/07/04 12:48:42;;;;;;;16.60;7.77;;;16.20;99.90;;;;;;5029194;28;20279;-90
2021/07/04 12:51:23;;;;;;;17.40;7.73;;;16.20;99.90;;;;;;5036012;28;20565;-90
2021/07/04 12:53:56;;;;;;;13.93;7.37;;;16.10;99.90;;;;;;5036769;28;20567;-89
2021/07/04 12:56:29;;;;;;;25.53;8.37;;;16.10;99.90;;;;;;5036986;28;20268;-90
2021/07/04 12:59:02;;;;;;;18.93;7.50;;;16.10;99.90;;;;;;5037047;28;20220;-90
2021/07/04 13:01:35;;;;;;;17.97;7.13;;;16.00;99.90;;;;;;5036574;28;20292;-89
2021/07/04 13:04:07;;;;;;;17.10;7.57;;;15.90;99.90;;;;;;5036728;28;20327;-90
2021/07/04 13:06:49;;;;;;;19.87;7.30;;;16.00;99.90;;;;;;5028907;28;20264;-90
2021/07/04 13:09:22;;;;;;;17.63;7.50;;;15.80;99.90;;;;;;5017277;28;20237;-90
2021/07/04 13:12:02;;;;;;;24.10;8.33;;;15.90;99.90;;;;;;5015844;28;20313;-90
2021/07/04 13:14:39;;;;;;;18.77;7.43;;;15.90;99.90;;;;;;5017587;28;20244;-90
2021/07/04 13:17:16;;;;;;;17.50;7.33;;;15.90;99.90;;;;;;5019379;28;20248;-91
2021/07/04 13:19:47;;;;;;;15.97;7.30;;;16.00;99.90;;;;;;5022947;28;20228;-90
2021/07/04 13:22:22;;;;;;;19.03;7.33;;;15.90;99.90;;;;;;5036254;28;20193;-89
2021/07/04 13:24:56;;;;;;;17.20;7.77;;;16.00;99.90;;;;;;5036428;28;20351;-91
2021/07/04 13:27:31;;;;;;;15.97;7.17;;;16.00;99.90;;;;;;5026554;28;21021;-90
2021/07/04 13:30:09;;;;;;;16.97;6.70;;;16.00;99.90;;;;;;5022326;28;20245;-91
2021/07/04 13:32:56;;;;;;;16.87;7.57;;;16.10;99.90;;;;;;5034121;28;20217;-91
2021/07/04 13:35:33;;;;;;;16.83;7.97;;;16.00;99.90;;;;;;5036545;28;20256;-90
2021/07/04 13:38:08;;;;;;;17.03;6.83;;;15.90;99.90;;;;;;5036411;28;20262;-89
2021/07/04 13:40:40;;;;;;;12.67;6.90;;;15.80;99.90;;;;;;5032959;28;20209;-91
2021/07/04 13:43:11;;;;;;;15.53;7.33;;;15.80;99.90;;;;;;5036034;28;20243;-90
2021/07/04 13:45:45;;;;;;;17.20;7.17;;;15.90;99.90;;;;;;5031144;28;20205;-90
2021/07/04 13:48:18;;;;;;;18.90;7.00;;;15.90;99.90;;;;;;5018574;28;20220;-90
2021/07/04 13:50:51;;;;;;;14.57;7.20;;;15.90;99.90;;;;;;5016438;28;20288;-91
2021/07/04 13:53:24;;;;;;;15.07;7.20;;;16.00;99.90;;;;;;5023098;28;20268;-90
2021/07/04 13:55:56;;;;;;;13.73;6.17;;;16.10;99.90;;;;;;5023188;28;20293;-89
2021/07/04 13:58:28;;;;;;;11.50;6.40;;;16.30;99.90;;;;;;5022604;28;20618;-90